createdAt,value
2019-05-30T02:39:43.952Z,20.31
2019-05-30T02:43:14.026Z,20.11
2019-05-30T02:46:44.089Z,20.12
2019-05-30T02:50:14.445Z,20.18
2019-05-30T02:53:44.549Z,20.2
2019-05-30T02:57:14.585Z,20.21
2019-05-30T03:00:31.137Z,20.23
2019-05-30T03:04:01.831Z,20.11
2019-05-30T03:07:33.721Z,19.87
2019-05-30T03:11:05.116Z,19.83
2019-05-30T03:14:37.217Z,19.8
2019-05-30T03:18:09.662Z,19.71
2019-05-30T03:21:40.443Z,19.65
2019-05-30T03:25:15.073Z,19.58
2019-05-30T03:28:46.119Z,19.66
2019-05-30T03:33:00.924Z,19.72
2019-05-30T03:36:35.094Z,19.84
2019-05-30T03:40:05.674Z,19.91
2019-05-30T03:43:35.827Z,20.01
2019-05-30T03:47:08.556Z,20.06
2019-05-30T03:50:47.174Z,20.07
2019-05-30T03:54:17.652Z,20.11
2019-05-30T03:58:01.884Z,20.24
2019-05-30T04:01:47.510Z,20.19
2019-05-30T04:05:25.333Z,20.08
2019-05-30T04:09:03.364Z,19.76
2019-05-30T04:13:19.347Z,19.71
2019-05-30T04:16:49.555Z,19.8
2019-05-30T04:20:22.453Z,20.01
2019-05-30T04:23:53.070Z,20.21
2019-05-30T04:27:23.155Z,21.05
2019-05-30T04:30:53.225Z,21.39
2019-05-30T04:34:23.314Z,21.7
2019-05-30T04:37:53.327Z,21.92
2019-05-30T04:41:23.468Z,21.97
2019-05-30T04:44:53.507Z,21.94
2019-05-30T04:48:23.618Z,21.85
2019-05-30T04:51:53.797Z,21.91
2019-05-30T04:55:23.983Z,22.17
2019-05-30T04:58:53.967Z,22.29
2019-05-30T05:00:17.225Z,22.27
2019-05-30T05:03:47.311Z,22.54
2019-05-30T05:07:17.888Z,22.74
2019-05-30T05:10:48.143Z,22.7
2019-05-30T05:14:18.525Z,22.62
2019-05-30T05:17:48.729Z,22.74
2019-05-30T05:21:18.925Z,22.96
2019-05-30T05:24:48.966Z,22.95
2019-05-30T05:28:19.981Z,23.16
2019-05-30T05:31:50.148Z,23.2
2019-05-30T05:35:20.890Z,23.33
2019-05-30T05:38:51.047Z,23.49
2019-05-30T05:42:22.317Z,23.47
2019-05-30T05:45:52.764Z,23.67
2019-05-30T05:49:22.814Z,23.68
2019-05-30T05:52:52.908Z,23.77
2019-05-30T05:56:23.011Z,23.93
2019-05-30T05:59:53.026Z,24.06
2019-05-30T06:03:24.244Z,24.14
2019-05-30T06:06:54.473Z,24.27
2019-05-30T06:10:25.727Z,24.46
2019-05-30T06:13:55.791Z,24.57
2019-05-30T06:17:26.499Z,24.64
2019-05-30T06:20:56.517Z,24.78
2019-05-30T06:24:27.833Z,24.46
2019-05-30T06:27:57.998Z,24.51
2019-05-30T06:31:28.718Z,24.57
2019-05-30T06:34:58.789Z,24.66
2019-05-30T06:38:29.526Z,24.87
2019-05-30T06:41:59.592Z,25
2019-05-30T06:45:30.395Z,25.14
2019-05-30T06:49:00.493Z,25.16
2019-05-30T06:52:32.086Z,25.21
2019-05-30T06:56:02.157Z,25.23
2019-05-30T06:59:32.231Z,25.47
2019-05-30T07:00:17.478Z,25.52
2019-05-30T07:03:47.690Z,25.62
2019-05-30T07:07:18.156Z,25.78
2019-05-30T07:10:48.280Z,25.96
2019-05-30T07:14:18.286Z,26.32
2019-05-30T07:17:48.269Z,26.38
2019-05-30T07:21:18.457Z,26.07
2019-05-30T07:24:48.535Z,26.05
2019-05-30T07:28:18.661Z,25.94
2019-05-30T07:31:48.712Z,25.84
2019-05-30T07:35:19.001Z,26.18
2019-05-30T07:38:49.131Z,26.38
2019-05-30T07:42:19.178Z,26.47
2019-05-30T07:45:57.675Z,26.54
2019-05-30T07:49:28.435Z,26.65
2019-05-30T07:52:58.552Z,26.81
2019-05-30T07:56:28.931Z,27
2019-05-30T07:59:59.169Z,27.11
2019-05-30T08:03:30.396Z,27.23
2019-05-30T08:07:00.719Z,27.27
2019-05-30T08:10:32.002Z,27.12
2019-05-30T08:14:02.305Z,27.18
2019-05-30T08:17:33.621Z,27.32
2019-05-30T08:21:03.789Z,27.34
2019-05-30T08:24:34.523Z,27.52
2019-05-30T08:28:04.719Z,27.61
2019-05-30T08:31:34.792Z,27.67
2019-05-30T08:35:05.713Z,27.7
2019-05-30T08:38:36.217Z,28
2019-05-30T08:42:07.348Z,28.21
2019-05-30T08:45:37.991Z,28.42
2019-05-30T08:49:08.220Z,28.63
2019-05-30T08:52:38.693Z,28.69
2019-05-30T08:56:08.823Z,28.73
2019-05-30T08:59:38.929Z,28.87
2019-05-30T09:00:17.246Z,28.92
2019-05-30T09:03:47.388Z,28.94
2019-05-30T09:07:17.435Z,28.94
2019-05-30T09:10:47.539Z,29.17
2019-05-30T09:14:17.579Z,29.15
2019-05-30T09:17:47.660Z,29.3
2019-05-30T09:21:17.746Z,29.36
2019-05-30T09:24:48.170Z,29.56
2019-05-30T09:28:18.231Z,29.54
2019-05-30T09:31:48.730Z,29.85
2019-05-30T09:35:19.111Z,29.98
2019-05-30T09:38:49.751Z,30.02
2019-05-30T09:42:19.895Z,30.31
2019-05-30T09:45:50.167Z,30.55
2019-05-30T09:49:20.266Z,30.59
2019-05-30T09:52:51.355Z,30.76
2019-05-30T09:56:21.487Z,30.9
2019-05-30T09:59:52.253Z,30.84
2019-05-30T10:03:22.461Z,31.18
2019-05-30T10:06:52.611Z,31.26
2019-05-30T10:10:22.979Z,31.86
2019-05-30T10:13:53.166Z,32.18
2019-05-30T10:17:23.288Z,32.52
2019-05-30T10:20:53.754Z,32.69
2019-05-30T10:24:23.964Z,33.32
2019-05-30T10:27:54.803Z,33.54
2019-05-30T10:31:25.028Z,33.82
2019-05-30T10:34:56.121Z,34.07
2019-05-30T10:38:26.471Z,34.62
2019-05-30T10:41:57.233Z,35.28
2019-05-30T10:45:27.704Z,35.36
2019-05-30T10:48:57.772Z,35.58
2019-05-30T10:52:27.977Z,35.45
2019-05-30T10:55:58.091Z,35.58
2019-05-30T10:59:28.338Z,35.9
2019-05-30T11:00:16.706Z,35.94
2019-05-30T11:03:47.622Z,35.7
2019-05-30T11:07:30.511Z,35.57
2019-05-30T11:11:00.625Z,35.55
2019-05-30T11:14:31.748Z,35.67
2019-05-30T11:18:01.893Z,35.77
2019-05-30T11:21:32.063Z,36.09
2019-05-30T11:25:02.814Z,36.25
2019-05-30T11:28:32.893Z,36.32
2019-05-30T11:32:02.933Z,36.07
2019-05-30T11:35:33.067Z,36.15
2019-05-30T11:39:05.201Z,35.98
2019-05-30T11:42:35.362Z,35.98
2019-05-30T11:46:05.448Z,36.24
2019-05-30T11:49:35.490Z,36.76
2019-05-30T11:53:05.576Z,37.12
2019-05-30T11:56:35.618Z,37.36
2019-05-30T12:00:06.214Z,37.3
2019-05-30T12:03:36.448Z,37.14
2019-05-30T12:07:06.530Z,36.59
2019-05-30T12:10:36.544Z,36.73
2019-05-30T12:14:06.646Z,36.3
2019-05-30T12:17:36.824Z,36
2019-05-30T12:21:06.899Z,36.06
2019-05-30T12:24:37.033Z,36.3
2019-05-30T12:28:07.267Z,36.67
2019-05-30T12:31:37.285Z,36.86
2019-05-30T12:35:08.156Z,37.19
2019-05-30T12:38:38.280Z,37.39
2019-05-30T12:42:08.362Z,37.66
2019-05-30T12:45:38.501Z,37.65
2019-05-30T12:49:08.439Z,37.91
2019-05-30T12:52:38.730Z,38.09
2019-05-30T12:56:08.754Z,37.63
2019-05-30T12:59:38.904Z,36.85
2019-05-30T13:00:19.150Z,36.78
2019-05-30T13:03:49.357Z,36.38
2019-05-30T13:07:19.451Z,36.33
2019-05-30T13:10:49.520Z,36.22
2019-05-30T13:14:19.657Z,36.4
2019-05-30T13:17:49.826Z,36.54
2019-05-30T13:21:19.984Z,37.23
2019-05-30T13:24:50.075Z,37.31
2019-05-30T13:28:20.161Z,37.16
2019-05-30T13:31:50.190Z,37.48
2019-05-30T13:35:20.391Z,37.48
2019-05-30T13:38:50.426Z,37.26
2019-05-30T13:42:20.591Z,37.07
2019-05-30T13:45:50.658Z,36.89
2019-05-30T13:49:20.751Z,37.73
2019-05-30T13:52:50.830Z,38.17
2019-05-30T13:56:21.061Z,38.09
2019-05-30T13:59:51.166Z,37.77
2019-05-30T14:03:21.172Z,37.49
2019-05-30T14:06:51.276Z,37.43
2019-05-30T14:10:21.526Z,37.48
2019-05-30T14:13:51.529Z,38.11
2019-05-30T14:17:21.642Z,38.58
2019-05-30T14:20:51.776Z,38.09
2019-05-30T14:24:21.800Z,38.06
2019-05-30T14:27:51.863Z,38.18
2019-05-30T14:31:22.053Z,38.35
2019-05-30T14:34:52.086Z,38.39
2019-05-30T14:38:22.273Z,38.08
2019-05-30T14:41:52.347Z,37.93
2019-05-30T14:45:22.547Z,38.1
2019-05-30T14:48:52.595Z,38.82
2019-05-30T14:52:22.746Z,38.96
2019-05-30T14:55:52.848Z,39.45
2019-05-30T14:59:22.957Z,39.23
2019-05-30T15:00:19.726Z,39.06
2019-05-30T15:03:49.835Z,38.66
2019-05-30T15:07:20.004Z,39.1
2019-05-30T15:10:50.106Z,39.27
2019-05-30T15:14:20.274Z,38.84
2019-05-30T15:17:50.462Z,38.64
2019-05-30T15:21:20.720Z,38.82
2019-05-30T15:24:50.896Z,39.04
2019-05-30T15:28:21.020Z,38.71
2019-05-30T15:31:51.195Z,38.74
2019-05-30T15:35:21.327Z,39.01
2019-05-30T15:38:51.421Z,38.58
2019-05-30T15:42:21.530Z,39.23
2019-05-30T15:45:51.611Z,39.49
2019-05-30T15:49:21.971Z,39.96
2019-05-30T15:52:52.038Z,40.07
2019-05-30T15:56:22.128Z,40.03
2019-05-30T15:59:52.343Z,39.87
2019-05-30T16:03:22.481Z,39.17
2019-05-30T16:06:52.560Z,38.89
2019-05-30T16:10:22.743Z,39.18
2019-05-30T16:13:52.918Z,38.77
2019-05-30T16:17:22.975Z,37.14
2019-05-30T16:20:53.007Z,35.32
2019-05-30T16:24:23.056Z,34.05
2019-05-30T16:27:53.130Z,33.4
2019-05-30T16:31:23.236Z,33.27
2019-05-30T16:34:53.208Z,32.72
2019-05-30T16:38:23.325Z,32.58
2019-05-30T16:41:53.417Z,33.44
2019-05-30T16:45:25.034Z,33.8
2019-05-30T16:48:55.383Z,33.25
2019-05-30T16:52:25.442Z,32.65
2019-05-30T16:55:55.497Z,31.93
2019-05-30T16:59:25.546Z,31.06
2019-05-30T17:00:18.226Z,30.96
2019-05-30T17:03:48.302Z,30.66
2019-05-30T17:07:19.096Z,30.09
2019-05-30T17:10:49.320Z,29.74
2019-05-30T17:14:19.718Z,29.6
2019-05-30T17:17:49.833Z,29.5
2019-05-30T17:21:21.120Z,29.43
2019-05-30T17:24:54.294Z,29.09
2019-05-30T17:28:24.655Z,28.83
2019-05-30T17:31:54.760Z,28.52
2019-05-30T17:35:24.771Z,28.26
2019-05-30T17:38:54.883Z,28.1
2019-05-30T17:42:25.603Z,27.83
2019-05-30T17:45:55.680Z,27.75
2019-05-30T17:49:25.878Z,27.52
2019-05-30T17:52:55.969Z,27.43
2019-05-30T17:56:26.166Z,27.62
2019-05-30T17:59:56.426Z,27.66
2019-05-30T18:03:26.484Z,27.57
2019-05-30T18:06:57.776Z,27.57
2019-05-30T18:10:28.942Z,27.37
2019-05-30T18:13:59.081Z,27.12
2019-05-30T18:17:29.216Z,27.04
2019-05-30T18:20:59.425Z,26.93
2019-05-30T18:24:29.647Z,26.89
2019-05-30T18:27:59.784Z,26.89
2019-05-30T18:31:30.166Z,26.77
2019-05-30T18:35:00.391Z,26.68
2019-05-30T18:38:30.521Z,26.59
2019-05-30T18:42:00.724Z,26.61
2019-05-30T18:45:36.446Z,26.65
2019-05-30T18:49:06.514Z,26.62
2019-05-30T18:52:36.881Z,26.59
2019-05-30T18:56:07.081Z,26.63
2019-05-30T18:59:37.368Z,26.56
2019-05-30T19:00:18.026Z,26.53
2019-05-30T19:03:48.540Z,26.68
2019-05-30T19:07:18.524Z,26.59
2019-05-30T19:10:55.723Z,26.6
2019-05-30T19:14:29.197Z,26.55
2019-05-30T19:18:01.291Z,26.5
2019-05-30T19:21:32.141Z,26.43
2019-05-30T19:25:02.689Z,26.35
2019-05-30T19:28:32.805Z,26.38
2019-05-30T19:32:02.770Z,26.34
2019-05-30T19:35:33.173Z,26.38
2019-05-30T19:39:04.798Z,26.32
2019-05-30T19:42:35.587Z,26.13
2019-05-30T19:46:05.718Z,25.97
2019-05-30T19:49:36.910Z,25.86
2019-05-30T19:53:07.034Z,25.94
2019-05-30T19:56:38.972Z,25.89
2019-05-30T20:00:11.414Z,25.77
2019-05-30T20:03:45.170Z,25.84
2019-05-30T20:07:16.941Z,25.76
2019-05-30T20:10:46.991Z,25.82
2019-05-30T20:14:17.153Z,25.76
2019-05-30T20:17:47.372Z,25.73
2019-05-30T20:21:17.324Z,25.76
2019-05-30T20:24:47.427Z,25.67
2019-05-30T20:28:17.480Z,25.61
2019-05-30T20:31:47.488Z,25.71
2019-05-30T20:35:17.543Z,25.67
2019-05-30T20:38:47.713Z,25.84
2019-05-30T20:42:19.564Z,25.95
2019-05-30T20:45:50.179Z,26
2019-05-30T20:49:20.178Z,25.93
2019-05-30T20:52:50.257Z,25.88
2019-05-30T20:56:20.263Z,25.9
2019-05-30T20:59:50.433Z,25.95
2019-05-30T21:00:18.063Z,25.92
2019-05-30T21:03:48.574Z,25.78
2019-05-30T21:07:18.816Z,25.87
2019-05-30T21:10:50.039Z,25.99
2019-05-30T21:14:21.040Z,26.05
2019-05-30T21:17:52.064Z,26.11
2019-05-30T21:21:22.273Z,26.19
2019-05-30T21:24:52.260Z,26.27
2019-05-30T21:28:22.295Z,26.33
2019-05-30T21:31:52.411Z,26.28
2019-05-30T21:35:22.536Z,26.19
2019-05-30T21:38:52.722Z,26.13
2019-05-30T21:42:22.788Z,26.04
2019-05-30T21:45:52.829Z,26.03
2019-05-30T21:49:22.962Z,25.95
2019-05-30T21:52:53.047Z,25.88
2019-05-30T21:56:23.154Z,25.89
2019-05-30T21:59:53.189Z,25.87
2019-05-30T22:03:23.271Z,25.82
2019-05-30T22:06:53.258Z,25.77
2019-05-30T22:10:23.377Z,25.75
2019-05-30T22:13:53.495Z,25.75
2019-05-30T22:17:23.652Z,25.91
2019-05-30T22:20:53.774Z,26
2019-05-30T22:24:23.889Z,26.05
2019-05-30T22:27:53.927Z,25.89
2019-05-30T22:31:24.068Z,26.02
2019-05-30T22:34:54.119Z,26.09
2019-05-30T22:38:24.244Z,26.08
2019-05-30T22:41:54.203Z,26.04
2019-05-30T22:45:24.304Z,25.98
2019-05-30T22:48:54.389Z,25.91
2019-05-30T22:52:24.518Z,25.74
2019-05-30T22:55:54.724Z,25.73
2019-05-30T22:59:24.913Z,25.73
2019-05-30T23:00:16.816Z,25.71
2019-05-30T23:03:47.215Z,25.74
2019-05-30T23:07:17.355Z,25.72
2019-05-30T23:10:47.682Z,25.71
2019-05-30T23:14:17.648Z,25.72
2019-05-30T23:17:48.298Z,25.66
2019-05-30T23:21:18.460Z,25.55
2019-05-30T23:24:49.191Z,25.55
2019-05-30T23:28:19.343Z,25.58
2019-05-30T23:31:49.912Z,25.36
2019-05-30T23:35:19.985Z,25.43
2019-05-30T23:38:50.734Z,25.36
2019-05-30T23:42:20.961Z,25.42
2019-05-30T23:45:51.447Z,25.56
2019-05-30T23:49:21.475Z,25.77
2019-05-30T23:52:52.059Z,25.68
2019-05-30T23:56:22.175Z,25.82
2019-05-30T23:59:52.693Z,25.95
